sensor_id;sensor_type;location;lat;lon;timestamp;P1;durP1;ratioP1;P2;durP2;ratioP2
15633;SDS011;14654;48.898;8.308;2022-07-10T00:02:03;3.87;;;3.53;;
15633;SDS011;14654;48.898;8.308;2022-07-10T00:04:28;3.43;;;3.23;;
15633;SDS011;14654;48.898;8.308;2022-07-10T00:06:54;3.93;;;3.63;;
15633;SDS011;14654;48.898;8.308;2022-07-10T00:09:21;3.90;;;3.60;;
15633;SDS011;14654;48.898;8.308;2022-07-10T00:11:47;3.57;;;3.27;;
15633;SDS011;14654;48.898;8.308;2022-07-10T00:14:12;3.80;;;3.50;;
15633;SDS011;14654;48.898;8.308;2022-07-10T00:16:38;4.17;;;3.87;;
15633;SDS011;14654;48.898;8.308;2022-07-10T00:19:03;3.83;;;3.53;;
15633;SDS011;14654;48.898;8.308;2022-07-10T00:21:29;3.73;;;3.53;;
15633;SDS011;14654;48.898;8.308;2022-07-10T00:23:54;3.80;;;3.50;;
15633;SDS011;14654;48.898;8.308;2022-07-10T00:26:19;3.50;;;3.20;;
15633;SDS011;14654;48.898;8.308;2022-07-10T00:28:45;3.90;;;3.60;;
15633;SDS011;14654;48.898;8.308;2022-07-10T00:31:10;3.60;;;3.40;;
15633;SDS011;14654;48.898;8.308;2022-07-10T00:33:36;3.93;;;3.70;;
15633;SDS011;14654;48.898;8.308;2022-07-10T00:36:04;4.03;;;3.83;;
15633;SDS011;14654;48.898;8.308;2022-07-10T00:38:30;4.20;;;3.90;;
15633;SDS011;14654;48.898;8.308;2022-07-10T00:40:55;3.97;;;3.70;;
15633;SDS011;14654;48.898;8.308;2022-07-10T00:43:21;4.30;;;4.00;;
15633;SDS011;14654;48.898;8.308;2022-07-10T00:45:48;3.93;;;3.63;;
15633;SDS011;14654;48.898;8.308;2022-07-10T00:48:13;3.93;;;3.63;;
15633;SDS011;14654;48.898;8.308;2022-07-10T00:50:39;4.17;;;3.87;;
15633;SDS011;14654;48.898;8.308;2022-07-10T00:53:06;3.97;;;3.70;;
15633;SDS011;14654;48.898;8.308;2022-07-10T00:55:32;3.97;;;3.77;;
15633;SDS011;14654;48.898;8.308;2022-07-10T00:57:59;3.80;;;3.60;;
15633;SDS011;14654;48.898;8.308;2022-07-10T01:00:25;3.97;;;3.67;;
15633;SDS011;14654;48.898;8.308;2022-07-10T01:02:51;4.10;;;3.80;;
15633;SDS011;14654;48.898;8.308;2022-07-10T01:05:17;4.60;;;4.20;;
15633;SDS011;14654;48.898;8.308;2022-07-10T01:07:42;3.60;;;3.40;;
15633;SDS011;14654;48.898;8.308;2022-07-10T01:10:08;4.13;;;3.83;;
15633;SDS011;14654;48.898;8.308;2022-07-10T01:12:34;4.00;;;3.70;;
15633;SDS011;14654;48.898;8.308;2022-07-10T01:14:59;4.47;;;4.17;;
15633;SDS011;14654;48.898;8.308;2022-07-10T01:17:25;4.13;;;3.83;;
15633;SDS011;14654;48.898;8.308;2022-07-10T01:19:51;4.90;;;4.50;;
15633;SDS011;14654;48.898;8.308;2022-07-10T01:22:16;5.30;;;4.67;;
15633;SDS011;14654;48.898;8.308;2022-07-10T01:24:42;5.23;;;4.73;;
15633;SDS011;14654;48.898;8.308;2022-07-10T01:27:07;4.83;;;4.43;;
15633;SDS011;14654;48.898;8.308;2022-07-10T01:29:33;4.33;;;4.03;;
15633;SDS011;14654;48.898;8.308;2022-07-10T01:31:59;4.47;;;4.07;;
15633;SDS011;14654;48.898;8.308;2022-07-10T01:34:26;4.30;;;3.80;;
15633;SDS011;14654;48.898;8.308;2022-07-10T01:36:51;3.90;;;3.60;;
15633;SDS011;14654;48.898;8.308;2022-07-10T01:39:17;3.60;;;3.30;;
15633;SDS011;14654;48.898;8.308;2022-07-10T01:41:42;3.87;;;3.50;;
15633;SDS011;14654;48.898;8.308;2022-07-10T01:44:07;3.43;;;3.10;;
15633;SDS011;14654;48.898;8.308;2022-07-10T01:46:33;3.87;;;3.10;;
15633;SDS011;14654;48.898;8.308;2022-07-10T01:48:58;3.57;;;3.30;;
15633;SDS011;14654;48.898;8.308;2022-07-10T01:51:24;4.50;;;3.47;;
15633;SDS011;14654;48.898;8.308;2022-07-10T01:53:49;3.27;;;2.97;;
15633;SDS011;14654;48.898;8.308;2022-07-10T01:56:15;3.37;;;2.87;;
15633;SDS011;14654;48.898;8.308;2022-07-10T01:58:40;3.20;;;2.57;;
15633;SDS011;14654;48.898;8.308;2022-07-10T02:01:07;2.53;;;2.33;;
15633;SDS011;14654;48.898;8.308;2022-07-10T02:03:33;4.33;;;2.83;;
15633;SDS011;14654;48.898;8.308;2022-07-10T02:06:18;3.17;;;2.57;;
15633;SDS011;14654;48.898;8.308;2022-07-10T02:08:43;3.13;;;2.90;;
15633;SDS011;14654;48.898;8.308;2022-07-10T02:11:09;2.50;;;2.30;;
15633;SDS011;14654;48.898;8.308;2022-07-10T02:13:35;3.63;;;2.47;;
15633;SDS011;14654;48.898;8.308;2022-07-10T02:16:00;5.03;;;2.90;;
15633;SDS011;14654;48.898;8.308;2022-07-10T02:18:25;2.60;;;2.30;;
15633;SDS011;14654;48.898;8.308;2022-07-10T02:20:51;3.77;;;2.60;;
15633;SDS011;14654;48.898;8.308;2022-07-10T02:23:17;3.80;;;2.60;;
15633;SDS011;14654;48.898;8.308;2022-07-10T02:25:43;3.93;;;2.63;;
15633;SDS011;14654;48.898;8.308;2022-07-10T02:28:09;3.67;;;3.10;;
15633;SDS011;14654;48.898;8.308;2022-07-10T02:30:34;4.03;;;2.50;;
15633;SDS011;14654;48.898;8.308;2022-07-10T02:33:00;4.37;;;2.47;;
15633;SDS011;14654;48.898;8.308;2022-07-10T02:35:26;3.90;;;2.70;;
15633;SDS011;14654;48.898;8.308;2022-07-10T02:37:51;3.63;;;2.30;;
15633;SDS011;14654;48.898;8.308;2022-07-10T02:40:16;5.83;;;2.77;;
15633;SDS011;14654;48.898;8.308;2022-07-10T02:42:42;3.37;;;2.60;;
15633;SDS011;14654;48.898;8.308;2022-07-10T02:45:07;2.77;;;2.57;;
15633;SDS011;14654;48.898;8.308;2022-07-10T02:47:33;4.07;;;2.93;;
15633;SDS011;14654;48.898;8.308;2022-07-10T02:49:58;3.23;;;2.33;;
15633;SDS011;14654;48.898;8.308;2022-07-10T02:52:24;2.90;;;2.60;;
15633;SDS011;14654;48.898;8.308;2022-07-10T02:54:49;3.63;;;2.37;;
15633;SDS011;14654;48.898;8.308;2022-07-10T02:57:16;5.23;;;2.50;;
15633;SDS011;14654;48.898;8.308;2022-07-10T02:59:41;4.33;;;2.80;;
15633;SDS011;14654;48.898;8.308;2022-07-10T03:02:07;4.50;;;2.30;;
15633;SDS011;14654;48.898;8.308;2022-07-10T03:04:32;4.30;;;2.33;;
15633;SDS011;14654;48.898;8.308;2022-07-10T03:06:58;4.17;;;2.57;;
15633;SDS011;14654;48.898;8.308;2022-07-10T03:09:23;4.63;;;2.50;;
15633;SDS011;14654;48.898;8.308;2022-07-10T03:11:50;6.13;;;3.00;;
15633;SDS011;14654;48.898;8.308;2022-07-10T03:14:16;2.70;;;2.13;;
15633;SDS011;14654;48.898;8.308;2022-07-10T03:16:42;3.70;;;2.50;;
15633;SDS011;14654;48.898;8.308;2022-07-10T03:19:07;4.17;;;2.50;;
15633;SDS011;14654;48.898;8.308;2022-07-10T03:21:33;4.77;;;2.60;;
15633;SDS011;14654;48.898;8.308;2022-07-10T03:23:58;3.17;;;2.10;;
15633;SDS011;14654;48.898;8.308;2022-07-10T03:26:23;3.13;;;2.27;;
15633;SDS011;14654;48.898;8.308;2022-07-10T03:28:49;3.53;;;2.13;;
15633;SDS011;14654;48.898;8.308;2022-07-10T03:31:14;3.43;;;2.03;;
15633;SDS011;14654;48.898;8.308;2022-07-10T03:33:40;3.67;;;2.30;;
15633;SDS011;14654;48.898;8.308;2022-07-10T03:36:05;2.97;;;2.03;;
15633;SDS011;14654;48.898;8.308;2022-07-10T03:38:31;3.00;;;2.50;;
15633;SDS011;14654;48.898;8.308;2022-07-10T03:40:57;3.53;;;2.37;;
15633;SDS011;14654;48.898;8.308;2022-07-10T03:43:22;4.10;;;2.60;;
15633;SDS011;14654;48.898;8.308;2022-07-10T03:45:47;2.80;;;2.13;;
15633;SDS011;14654;48.898;8.308;2022-07-10T03:48:13;3.70;;;2.20;;
15633;SDS011;14654;48.898;8.308;2022-07-10T03:50:38;2.67;;;2.00;;
15633;SDS011;14654;48.898;8.308;2022-07-10T03:53:03;4.13;;;2.23;;
15633;SDS011;14654;48.898;8.308;2022-07-10T03:55:29;4.40;;;2.30;;
15633;SDS011;14654;48.898;8.308;2022-07-10T03:57:54;2.37;;;2.17;;
15633;SDS011;14654;48.898;8.308;2022-07-10T04:00:21;3.27;;;2.30;;
15633;SDS011;14654;48.898;8.308;2022-07-10T04:05:22;2.77;;;2.20;;
15633;SDS011;14654;48.898;8.308;2022-07-10T04:07:48;4.17;;;2.33;;
15633;SDS011;14654;48.898;8.308;2022-07-10T04:10:13;2.90;;;2.17;;
15633;SDS011;14654;48.898;8.308;2022-07-10T04:12:39;3.33;;;2.20;;
15633;SDS011;14654;48.898;8.308;2022-07-10T04:15:04;1.80;;;1.70;;
15633;SDS011;14654;48.898;8.308;2022-07-10T04:17:30;2.50;;;1.90;;
15633;SDS011;14654;48.898;8.308;2022-07-10T04:19:57;2.80;;;2.30;;
15633;SDS011;14654;48.898;8.308;2022-07-10T04:22:23;3.67;;;2.17;;
15633;SDS011;14654;48.898;8.308;2022-07-10T04:24:50;2.87;;;1.83;;
15633;SDS011;14654;48.898;8.308;2022-07-10T04:27:16;2.63;;;1.67;;
15633;SDS011;14654;48.898;8.308;2022-07-10T04:29:42;2.70;;;1.80;;
15633;SDS011;14654;48.898;8.308;2022-07-10T04:32:07;2.47;;;1.87;;
15633;SDS011;14654;48.898;8.308;2022-07-10T04:34:33;3.37;;;2.10;;
15633;SDS011;14654;48.898;8.308;2022-07-10T04:36:59;4.40;;;2.10;;
15633;SDS011;14654;48.898;8.308;2022-07-10T04:39:24;2.13;;;1.90;;
15633;SDS011;14654;48.898;8.308;2022-07-10T04:41:50;4.93;;;1.87;;
15633;SDS011;14654;48.898;8.308;2022-07-10T04:44:15;3.20;;;1.93;;
15633;SDS011;14654;48.898;8.308;2022-07-10T04:46:41;2.17;;;1.90;;
15633;SDS011;14654;48.898;8.308;2022-07-10T04:49:06;3.17;;;2.03;;
15633;SDS011;14654;48.898;8.308;2022-07-10T04:51:32;3.60;;;1.97;;
15633;SDS011;14654;48.898;8.308;2022-07-10T04:53:57;3.83;;;2.10;;
15633;SDS011;14654;48.898;8.308;2022-07-10T04:56:22;3.20;;;1.90;;
15633;SDS011;14654;48.898;8.308;2022-07-10T04:58:47;3.87;;;2.00;;
15633;SDS011;14654;48.898;8.308;2022-07-10T05:01:13;2.87;;;1.77;;
15633;SDS011;14654;48.898;8.308;2022-07-10T05:03:38;2.43;;;1.90;;
15633;SDS011;14654;48.898;8.308;2022-07-10T05:06:04;3.83;;;1.63;;
15633;SDS011;14654;48.898;8.308;2022-07-10T05:08:30;4.30;;;1.97;;
15633;SDS011;14654;48.898;8.308;2022-07-10T05:10:55;3.50;;;1.90;;
15633;SDS011;14654;48.898;8.308;2022-07-10T05:13:20;4.10;;;1.87;;
15633;SDS011;14654;48.898;8.308;2022-07-10T05:15:46;4.37;;;2.27;;
15633;SDS011;14654;48.898;8.308;2022-07-10T05:18:15;4.33;;;2.30;;
15633;SDS011;14654;48.898;8.308;2022-07-10T05:20:40;2.17;;;1.80;;
15633;SDS011;14654;48.898;8.308;2022-07-10T05:23:08;2.87;;;1.77;;
15633;SDS011;14654;48.898;8.308;2022-07-10T05:25:34;4.20;;;1.90;;
15633;SDS011;14654;48.898;8.308;2022-07-10T05:27:59;4.90;;;2.10;;
15633;SDS011;14654;48.898;8.308;2022-07-10T05:30:25;2.70;;;2.00;;
15633;SDS011;14654;48.898;8.308;2022-07-10T05:32:50;2.50;;;2.10;;
15633;SDS011;14654;48.898;8.308;2022-07-10T05:35:15;5.33;;;2.00;;
15633;SDS011;14654;48.898;8.308;2022-07-10T05:37:41;2.27;;;1.80;;
15633;SDS011;14654;48.898;8.308;2022-07-10T05:40:06;2.83;;;1.60;;
15633;SDS011;14654;48.898;8.308;2022-07-10T05:42:33;3.37;;;1.70;;
15633;SDS011;14654;48.898;8.308;2022-07-10T05:44:59;1.87;;;1.53;;
15633;SDS011;14654;48.898;8.308;2022-07-10T05:47:25;3.70;;;1.60;;
15633;SDS011;14654;48.898;8.308;2022-07-10T05:49:50;3.93;;;1.90;;
15633;SDS011;14654;48.898;8.308;2022-07-10T05:52:15;3.03;;;1.63;;
15633;SDS011;14654;48.898;8.308;2022-07-10T05:54:40;3.90;;;1.90;;
15633;SDS011;14654;48.898;8.308;2022-07-10T05:57:06;2.83;;;2.00;;
15633;SDS011;14654;48.898;8.308;2022-07-10T05:59:34;3.57;;;1.77;;
15633;SDS011;14654;48.898;8.308;2022-07-10T06:02:03;2.53;;;1.77;;
15633;SDS011;14654;48.898;8.308;2022-07-10T06:04:29;3.00;;;1.90;;
15633;SDS011;14654;48.898;8.308;2022-07-10T06:06:54;3.33;;;2.00;;
15633;SDS011;14654;48.898;8.308;2022-07-10T06:09:19;3.07;;;1.60;;
15633;SDS011;14654;48.898;8.308;2022-07-10T06:11:45;2.27;;;1.90;;
15633;SDS011;14654;48.898;8.308;2022-07-10T06:14:13;2.87;;;2.00;;
15633;SDS011;14654;48.898;8.308;2022-07-10T06:16:39;2.97;;;1.93;;
15633;SDS011;14654;48.898;8.308;2022-07-10T06:19:04;2.97;;;1.83;;
15633;SDS011;14654;48.898;8.308;2022-07-10T06:21:30;3.63;;;1.80;;
15633;SDS011;14654;48.898;8.308;2022-07-10T06:23:56;4.97;;;1.93;;
15633;SDS011;14654;48.898;8.308;2022-07-10T06:26:21;3.53;;;1.80;;
15633;SDS011;14654;48.898;8.308;2022-07-10T06:28:47;3.17;;;2.03;;
15633;SDS011;14654;48.898;8.308;2022-07-10T06:31:12;6.10;;;1.93;;
15633;SDS011;14654;48.898;8.308;2022-07-10T06:33:38;2.97;;;1.90;;
15633;SDS011;14654;48.898;8.308;2022-07-10T06:36:04;2.10;;;1.70;;
15633;SDS011;14654;48.898;8.308;2022-07-10T06:38:30;2.83;;;1.90;;
15633;SDS011;14654;48.898;8.308;2022-07-10T06:40:55;5.03;;;2.30;;
15633;SDS011;14654;48.898;8.308;2022-07-10T06:43:21;2.60;;;1.87;;
15633;SDS011;14654;48.898;8.308;2022-07-10T06:45:46;2.37;;;2.00;;
15633;SDS011;14654;48.898;8.308;2022-07-10T06:48:12;4.67;;;2.20;;
15633;SDS011;14654;48.898;8.308;2022-07-10T06:50:38;3.57;;;2.03;;
15633;SDS011;14654;48.898;8.308;2022-07-10T06:53:04;4.47;;;2.30;;
15633;SDS011;14654;48.898;8.308;2022-07-10T06:55:30;5.93;;;1.90;;
15633;SDS011;14654;48.898;8.308;2022-07-10T06:57:57;3.03;;;1.73;;
15633;SDS011;14654;48.898;8.308;2022-07-10T07:00:22;3.33;;;1.73;;
15633;SDS011;14654;48.898;8.308;2022-07-10T07:02:47;3.63;;;1.90;;
15633;SDS011;14654;48.898;8.308;2022-07-10T07:05:13;4.00;;;1.97;;
15633;SDS011;14654;48.898;8.308;2022-07-10T07:07:39;3.40;;;1.80;;
15633;SDS011;14654;48.898;8.308;2022-07-10T07:10:04;4.03;;;2.10;;
15633;SDS011;14654;48.898;8.308;2022-07-10T07:12:31;4.00;;;1.70;;
15633;SDS011;14654;48.898;8.308;2022-07-10T07:14:56;5.43;;;2.17;;
15633;SDS011;14654;48.898;8.308;2022-07-10T07:17:21;3.67;;;1.67;;
15633;SDS011;14654;48.898;8.308;2022-07-10T07:19:48;3.53;;;1.77;;
15633;SDS011;14654;48.898;8.308;2022-07-10T07:22:32;1.57;;;1.43;;
15633;SDS011;14654;48.898;8.308;2022-07-10T07:25:16;5.20;;;2.00;;
15633;SDS011;14654;48.898;8.308;2022-07-10T07:27:41;3.33;;;2.00;;
15633;SDS011;14654;48.898;8.308;2022-07-10T07:30:08;2.60;;;1.80;;
15633;SDS011;14654;48.898;8.308;2022-07-10T07:32:45;4.23;;;1.93;;
15633;SDS011;14654;48.898;8.308;2022-07-10T07:35:12;5.27;;;2.07;;
15633;SDS011;14654;48.898;8.308;2022-07-10T07:37:39;2.77;;;1.50;;
15633;SDS011;14654;48.898;8.308;2022-07-10T07:40:07;3.37;;;1.57;;
15633;SDS011;14654;48.898;8.308;2022-07-10T07:42:34;2.10;;;1.50;;
15633;SDS011;14654;48.898;8.308;2022-07-10T07:45:00;4.03;;;1.30;;
15633;SDS011;14654;48.898;8.308;2022-07-10T07:47:26;3.10;;;1.43;;
15633;SDS011;14654;48.898;8.308;2022-07-10T07:49:52;4.17;;;1.80;;
15633;SDS011;14654;48.898;8.308;2022-07-10T07:52:17;3.43;;;1.70;;
15633;SDS011;14654;48.898;8.308;2022-07-10T07:54:43;2.47;;;1.37;;
15633;SDS011;14654;48.898;8.308;2022-07-10T07:57:08;2.53;;;1.30;;
15633;SDS011;14654;48.898;8.308;2022-07-10T07:59:34;3.20;;;1.37;;
15633;SDS011;14654;48.898;8.308;2022-07-10T08:02:00;3.00;;;1.43;;
15633;SDS011;14654;48.898;8.308;2022-07-10T08:04:25;4.60;;;1.77;;
15633;SDS011;14654;48.898;8.308;2022-07-10T08:06:51;3.13;;;1.60;;
15633;SDS011;14654;48.898;8.308;2022-07-10T08:09:19;2.27;;;1.40;;
15633;SDS011;14654;48.898;8.308;2022-07-10T08:11:45;3.47;;;1.60;;
15633;SDS011;14654;48.898;8.308;2022-07-10T08:14:12;1.90;;;1.30;;
15633;SDS011;14654;48.898;8.308;2022-07-10T08:16:38;2.77;;;1.50;;
15633;SDS011;14654;48.898;8.308;2022-07-10T08:19:04;3.83;;;1.70;;
15633;SDS011;14654;48.898;8.308;2022-07-10T08:21:30;2.37;;;1.53;;
15633;SDS011;14654;48.898;8.308;2022-07-10T08:23:56;2.70;;;1.50;;
15633;SDS011;14654;48.898;8.308;2022-07-10T08:26:22;2.70;;;1.27;;
15633;SDS011;14654;48.898;8.308;2022-07-10T08:28:47;2.07;;;1.40;;
15633;SDS011;14654;48.898;8.308;2022-07-10T08:31:13;2.83;;;1.37;;
15633;SDS011;14654;48.898;8.308;2022-07-10T08:33:38;4.17;;;1.53;;
15633;SDS011;14654;48.898;8.308;2022-07-10T08:36:04;2.37;;;1.40;;
15633;SDS011;14654;48.898;8.308;2022-07-10T08:38:29;4.27;;;1.53;;
15633;SDS011;14654;48.898;8.308;2022-07-10T08:40:55;3.63;;;1.77;;
15633;SDS011;14654;48.898;8.308;2022-07-10T08:43:24;4.80;;;1.47;;
15633;SDS011;14654;48.898;8.308;2022-07-10T08:45:50;1.83;;;1.17;;
15633;SDS011;14654;48.898;8.308;2022-07-10T08:48:18;4.50;;;1.40;;
15633;SDS011;14654;48.898;8.308;2022-07-10T08:50:47;1.63;;;1.13;;
15633;SDS011;14654;48.898;8.308;2022-07-10T08:53:17;2.37;;;1.47;;
15633;SDS011;14654;48.898;8.308;2022-07-10T08:55:45;2.30;;;1.20;;
15633;SDS011;14654;48.898;8.308;2022-07-10T08:58:12;3.40;;;1.60;;
15633;SDS011;14654;48.898;8.308;2022-07-10T09:00:38;4.30;;;1.80;;
15633;SDS011;14654;48.898;8.308;2022-07-10T09:03:03;2.90;;;1.30;;
15633;SDS011;14654;48.898;8.308;2022-07-10T09:05:29;3.67;;;1.27;;
15633;SDS011;14654;48.898;8.308;2022-07-10T09:07:54;2.40;;;1.37;;
15633;SDS011;14654;48.898;8.308;2022-07-10T09:10:21;5.33;;;1.53;;
15633;SDS011;14654;48.898;8.308;2022-07-10T09:12:50;1.40;;;1.20;;
15633;SDS011;14654;48.898;8.308;2022-07-10T09:15:18;2.23;;;1.20;;
15633;SDS011;14654;48.898;8.308;2022-07-10T09:17:58;2.47;;;1.40;;
15633;SDS011;14654;48.898;8.308;2022-07-10T09:20:33;2.70;;;1.20;;
15633;SDS011;14654;48.898;8.308;2022-07-10T09:23:08;3.50;;;1.70;;
15633;SDS011;14654;48.898;8.308;2022-07-10T09:25:48;2.80;;;1.33;;
15633;SDS011;14654;48.898;8.308;2022-07-10T09:28:16;2.20;;;1.13;;
15633;SDS011;14654;48.898;8.308;2022-07-10T09:30:43;8.10;;;2.10;;
15633;SDS011;14654;48.898;8.308;2022-07-10T09:33:16;3.37;;;1.20;;
15633;SDS011;14654;48.898;8.308;2022-07-10T09:35:55;2.20;;;1.17;;
15633;SDS011;14654;48.898;8.308;2022-07-10T09:38:53;2.67;;;0.93;;
15633;SDS011;14654;48.898;8.308;2022-07-10T09:41:19;2.30;;;1.20;;
15633;SDS011;14654;48.898;8.308;2022-07-10T09:43:50;1.63;;;0.90;;
15633;SDS011;14654;48.898;8.308;2022-07-10T09:46:16;2.43;;;1.10;;
15633;SDS011;14654;48.898;8.308;2022-07-10T09:48:43;1.67;;;0.97;;
15633;SDS011;14654;48.898;8.308;2022-07-10T09:51:09;2.00;;;1.17;;
15633;SDS011;14654;48.898;8.308;2022-07-10T09:53:37;1.83;;;0.80;;
15633;SDS011;14654;48.898;8.308;2022-07-10T09:56:05;2.63;;;1.40;;
15633;SDS011;14654;48.898;8.308;2022-07-10T09:58:33;4.67;;;1.60;;
15633;SDS011;14654;48.898;8.308;2022-07-10T10:01:00;1.80;;;1.00;;
15633;SDS011;14654;48.898;8.308;2022-07-10T10:03:28;2.37;;;1.30;;
15633;SDS011;14654;48.898;8.308;2022-07-10T10:11:40;3.20;;;1.00;;
15633;SDS011;14654;48.898;8.308;2022-07-10T10:14:08;1.60;;;1.00;;
15633;SDS011;14654;48.898;8.308;2022-07-10T10:16:34;3.57;;;1.10;;
15633;SDS011;14654;48.898;8.308;2022-07-10T10:19:01;2.27;;;0.83;;
15633;SDS011;14654;48.898;8.308;2022-07-10T10:21:45;4.03;;;1.13;;
15633;SDS011;14654;48.898;8.308;2022-07-10T10:24:11;1.27;;;0.77;;
15633;SDS011;14654;48.898;8.308;2022-07-10T10:26:39;3.17;;;1.00;;
15633;SDS011;14654;48.898;8.308;2022-07-10T10:29:06;1.27;;;0.90;;
15633;SDS011;14654;48.898;8.308;2022-07-10T10:31:33;2.13;;;1.00;;
15633;SDS011;14654;48.898;8.308;2022-07-10T10:33:59;2.27;;;0.90;;
15633;SDS011;14654;48.898;8.308;2022-07-10T10:36:46;2.10;;;0.83;;
15633;SDS011;14654;48.898;8.308;2022-07-10T10:39:16;4.23;;;1.37;;
15633;SDS011;14654;48.898;8.308;2022-07-10T10:49:14;2.27;;;0.80;;
15633;SDS011;14654;48.898;8.308;2022-07-10T10:57:22;1.80;;;0.90;;
15633;SDS011;14654;48.898;8.308;2022-07-10T11:00:29;1.00;;;0.77;;
15633;SDS011;14654;48.898;8.308;2022-07-10T11:03:20;1.00;;;0.70;;
15633;SDS011;14654;48.898;8.308;2022-07-10T11:05:47;2.33;;;1.20;;
15633;SDS011;14654;48.898;8.308;2022-07-10T11:08:14;2.97;;;1.07;;
15633;SDS011;14654;48.898;8.308;2022-07-10T11:11:41;3.00;;;1.20;;
15633;SDS011;14654;48.898;8.308;2022-07-10T11:14:02;3.20;;;1.03;;
15633;SDS011;14654;48.898;8.308;2022-07-10T11:16:28;1.63;;;0.90;;
15633;SDS011;14654;48.898;8.308;2022-07-10T11:18:57;3.20;;;1.10;;
15633;SDS011;14654;48.898;8.308;2022-07-10T11:21:23;2.97;;;1.00;;
15633;SDS011;14654;48.898;8.308;2022-07-10T11:26:44;1.23;;;0.90;;
15633;SDS011;14654;48.898;8.308;2022-07-10T11:29:20;2.50;;;1.30;;
15633;SDS011;14654;48.898;8.308;2022-07-10T11:31:52;2.80;;;0.90;;
15633;SDS011;14654;48.898;8.308;2022-07-10T11:34:19;2.37;;;0.90;;
15633;SDS011;14654;48.898;8.308;2022-07-10T11:36:46;2.57;;;1.20;;
15633;SDS011;14654;48.898;8.308;2022-07-10T11:39:12;1.70;;;0.87;;
15633;SDS011;14654;48.898;8.308;2022-07-10T11:41:42;2.23;;;0.83;;
15633;SDS011;14654;48.898;8.308;2022-07-10T11:44:15;4.07;;;0.90;;
15633;SDS011;14654;48.898;8.308;2022-07-10T11:46:42;2.63;;;0.80;;
15633;SDS011;14654;48.898;8.308;2022-07-10T11:49:14;1.80;;;0.83;;
15633;SDS011;14654;48.898;8.308;2022-07-10T11:51:40;1.53;;;0.80;;
15633;SDS011;14654;48.898;8.308;2022-07-10T11:54:15;1.70;;;0.80;;
15633;SDS011;14654;48.898;8.308;2022-07-10T11:56:46;2.67;;;1.00;;
15633;SDS011;14654;48.898;8.308;2022-07-10T11:59:17;3.03;;;1.70;;
15633;SDS011;14654;48.898;8.308;2022-07-10T12:01:45;2.73;;;1.40;;
15633;SDS011;14654;48.898;8.308;2022-07-10T12:04:16;4.53;;;1.30;;
15633;SDS011;14654;48.898;8.308;2022-07-10T12:06:46;3.80;;;1.50;;
15633;SDS011;14654;48.898;8.308;2022-07-10T12:09:13;3.33;;;1.27;;
15633;SDS011;14654;48.898;8.308;2022-07-10T12:11:40;1.43;;;0.97;;
15633;SDS011;14654;48.898;8.308;2022-07-10T12:14:10;2.60;;;1.63;;
15633;SDS011;14654;48.898;8.308;2022-07-10T12:16:48;3.53;;;1.70;;
15633;SDS011;14654;48.898;8.308;2022-07-10T12:19:28;2.30;;;1.63;;
15633;SDS011;14654;48.898;8.308;2022-07-10T12:21:56;1.87;;;1.50;;
15633;SDS011;14654;48.898;8.308;2022-07-10T12:24:23;2.57;;;1.40;;
15633;SDS011;14654;48.898;8.308;2022-07-10T12:26:50;2.30;;;1.17;;
15633;SDS011;14654;48.898;8.308;2022-07-10T12:29:21;1.83;;;1.20;;
15633;SDS011;14654;48.898;8.308;2022-07-10T12:31:47;1.67;;;0.90;;
15633;SDS011;14654;48.898;8.308;2022-07-10T12:34:16;3.03;;;1.23;;
15633;SDS011;14654;48.898;8.308;2022-07-10T12:39:11;3.23;;;0.80;;
15633;SDS011;14654;48.898;8.308;2022-07-10T12:47:13;1.70;;;0.77;;
15633;SDS011;14654;48.898;8.308;2022-07-10T12:52:29;1.83;;;0.70;;
15633;SDS011;14654;48.898;8.308;2022-07-10T12:55:06;2.30;;;1.00;;
15633;SDS011;14654;48.898;8.308;2022-07-10T12:57:44;2.17;;;1.07;;
15633;SDS011;14654;48.898;8.308;2022-07-10T13:00:30;2.30;;;0.90;;
15633;SDS011;14654;48.898;8.308;2022-07-10T13:03:02;3.57;;;0.93;;
15633;SDS011;14654;48.898;8.308;2022-07-10T13:08:20;1.50;;;0.97;;
15633;SDS011;14654;48.898;8.308;2022-07-10T13:10:57;1.40;;;0.73;;
15633;SDS011;14654;48.898;8.308;2022-07-10T13:13:26;2.60;;;1.00;;
15633;SDS011;14654;48.898;8.308;2022-07-10T13:15:53;4.20;;;1.23;;
15633;SDS011;14654;48.898;8.308;2022-07-10T13:18:23;2.27;;;1.07;;
15633;SDS011;14654;48.898;8.308;2022-07-10T13:20:53;2.63;;;0.70;;
15633;SDS011;14654;48.898;8.308;2022-07-10T13:23:20;2.60;;;0.90;;
15633;SDS011;14654;48.898;8.308;2022-07-10T13:25:50;2.23;;;0.90;;
15633;SDS011;14654;48.898;8.308;2022-07-10T13:28:19;1.63;;;0.87;;
15633;SDS011;14654;48.898;8.308;2022-07-10T13:30:45;1.27;;;0.87;;
15633;SDS011;14654;48.898;8.308;2022-07-10T13:33:11;1.97;;;1.03;;
15633;SDS011;14654;48.898;8.308;2022-07-10T13:35:37;3.87;;;1.00;;
15633;SDS011;14654;48.898;8.308;2022-07-10T13:38:03;1.53;;;0.97;;
15633;SDS011;14654;48.898;8.308;2022-07-10T13:40:34;1.00;;;0.60;;
15633;SDS011;14654;48.898;8.308;2022-07-10T13:43:01;2.40;;;1.07;;
15633;SDS011;14654;48.898;8.308;2022-07-10T13:45:27;2.40;;;1.00;;
15633;SDS011;14654;48.898;8.308;2022-07-10T13:48:02;1.73;;;0.87;;
15633;SDS011;14654;48.898;8.308;2022-07-10T13:50:28;1.50;;;0.90;;
15633;SDS011;14654;48.898;8.308;2022-07-10T13:52:54;2.90;;;1.10;;
15633;SDS011;14654;48.898;8.308;2022-07-10T13:55:19;1.80;;;0.90;;
15633;SDS011;14654;48.898;8.308;2022-07-10T13:57:45;2.03;;;1.00;;
15633;SDS011;14654;48.898;8.308;2022-07-10T14:00:10;2.07;;;1.10;;
15633;SDS011;14654;48.898;8.308;2022-07-10T14:02:36;2.03;;;0.83;;
15633;SDS011;14654;48.898;8.308;2022-07-10T14:05:02;2.57;;;0.93;;
15633;SDS011;14654;48.898;8.308;2022-07-10T14:07:27;1.60;;;1.13;;
15633;SDS011;14654;48.898;8.308;2022-07-10T14:09:53;2.53;;;1.20;;
15633;SDS011;14654;48.898;8.308;2022-07-10T14:12:19;5.13;;;1.27;;
15633;SDS011;14654;48.898;8.308;2022-07-10T14:14:44;3.10;;;1.13;;
15633;SDS011;14654;48.898;8.308;2022-07-10T14:17:10;4.87;;;1.10;;
15633;SDS011;14654;48.898;8.308;2022-07-10T14:19:35;2.60;;;1.10;;
15633;SDS011;14654;48.898;8.308;2022-07-10T14:22:01;3.23;;;1.30;;
15633;SDS011;14654;48.898;8.308;2022-07-10T14:24:27;4.10;;;1.13;;
15633;SDS011;14654;48.898;8.308;2022-07-10T14:26:52;2.03;;;1.00;;
15633;SDS011;14654;48.898;8.308;2022-07-10T14:29:20;2.47;;;1.10;;
15633;SDS011;14654;48.898;8.308;2022-07-10T14:31:46;1.70;;;1.13;;
15633;SDS011;14654;48.898;8.308;2022-07-10T14:34:14;1.47;;;1.00;;
15633;SDS011;14654;48.898;8.308;2022-07-10T14:36:43;1.97;;;0.80;;
15633;SDS011;14654;48.898;8.308;2022-07-10T14:39:09;1.93;;;1.00;;
15633;SDS011;14654;48.898;8.308;2022-07-10T14:41:34;1.90;;;1.10;;
15633;SDS011;14654;48.898;8.308;2022-07-10T14:43:59;1.57;;;1.07;;
15633;SDS011;14654;48.898;8.308;2022-07-10T14:46:25;2.57;;;0.90;;
15633;SDS011;14654;48.898;8.308;2022-07-10T14:48:51;1.60;;;1.10;;
15633;SDS011;14654;48.898;8.308;2022-07-10T14:51:16;3.27;;;1.20;;
15633;SDS011;14654;48.898;8.308;2022-07-10T14:53:42;2.20;;;1.20;;
15633;SDS011;14654;48.898;8.308;2022-07-10T14:56:10;2.37;;;1.20;;
15633;SDS011;14654;48.898;8.308;2022-07-10T14:58:36;4.00;;;1.13;;
15633;SDS011;14654;48.898;8.308;2022-07-10T15:01:01;2.57;;;1.10;;
15633;SDS011;14654;48.898;8.308;2022-07-10T15:03:28;1.47;;;1.20;;
15633;SDS011;14654;48.898;8.308;2022-07-10T15:05:53;1.67;;;1.10;;
15633;SDS011;14654;48.898;8.308;2022-07-10T15:08:24;2.53;;;1.23;;
15633;SDS011;14654;48.898;8.308;2022-07-10T15:10:49;2.33;;;1.27;;
15633;SDS011;14654;48.898;8.308;2022-07-10T15:13:15;1.90;;;1.03;;
15633;SDS011;14654;48.898;8.308;2022-07-10T15:15:41;2.63;;;1.17;;
15633;SDS011;14654;48.898;8.308;2022-07-10T15:18:07;2.77;;;1.27;;
15633;SDS011;14654;48.898;8.308;2022-07-10T15:20:33;2.40;;;1.23;;
15633;SDS011;14654;48.898;8.308;2022-07-10T15:22:59;1.53;;;1.10;;
15633;SDS011;14654;48.898;8.308;2022-07-10T15:25:24;2.20;;;1.13;;
15633;SDS011;14654;48.898;8.308;2022-07-10T15:27:50;3.40;;;1.53;;